METAR AND TAF INFORMATION
METAR FOR LEAM
ADDS - METARS form results

(0750 UTC 02 December 2020)
Data provider http://aviationweather.gov/metar/data/
 
METAR text: LEAM 020730Z 34004KT 9999 FEW020 10/05 Q1013
Conditions at: LEAM (ALMERIA AIRPORT , ES) observed 0730 UTC 02 December 2020
Temperature: 10.0°C (50°F)
Dewpoint: 5.0°C (41°F) [RH = 71%]
Pressure (altimeter): 29.91 inches Hg (1013.0 mb)
Winds: from the NNW (340 degrees) at 5 MPH (4 knots; 2.1 m/s)
Visibility: 6 or more miles (10+ km)
Ceiling: at least 12,000 feet AGL
Clouds: few clouds at 2000 feet AGL
Weather: no significant weather observed at this time

METAR text: LEAM 020700Z 02003KT 330V060 9999 FEW020 11/05 Q1013
Conditions at: LEAM (ALMERIA AIRPORT , ES) observed 0700 UTC 02 December 2020
Temperature: 11.0°C (52°F)
Dewpoint: 5.0°C (41°F) [RH = 66%]
Pressure (altimeter): 29.91 inches Hg (1013.0 mb)
Winds: from the NNE (20 degrees) at 3 MPH (3 knots; 1.5 m/s)
Visibility: 6 or more miles (10+ km)
Ceiling: at least 12,000 feet AGL
Clouds: few clouds at 2000 feet AGL
Weather: no significant weather observed at this time

Forecast for: LEAM (ALMERIA AIRPORT , ES)
Text: TAF LEAM 020200Z 0203/0303 30009KT CAVOK TX20/0214Z TN12/0205Z
Forecast period: 0300 to 0400 UTC 02 December 2020
Forecast type: FROM: standard forecast or significant change
Winds: from the WNW (300 degrees) at 10 MPH (9 knots; 4.6 m/s)
Visibility: 6 or more miles (10+ km)
Ceiling: unknown
Clouds: missing
Weather: no significant weather forecast for this period
Text: BECMG 0204/0206 01010KT
Forecast period: 0400 to 1000 UTC 02 December 2020
Forecast type: BECOMING: Conditions expected to become as follows by 0600 UTC 02 December 2020
Winds: from the N (10 degrees) at 12 MPH (10 knots; 5.1 m/s)
Visibility: 6 or more miles (10+ km)
Ceiling: unknown
Clouds: missing
Weather: no significant weather forecast for this period
Text: BECMG 0210/0212 15010KT
Forecast period: 1000 UTC 02 December 2020 to 0300 UTC 03 December 2020
Forecast type: BECOMING: Conditions expected to become as follows by 1200 UTC 02 December 2020
Winds: from the SSE (150 degrees) at 12 MPH (10 knots; 5.1 m/s)
Visibility: 6 or more miles (10+ km)
Ceiling: unknown
Clouds: missing
Weather: no significant weather forecast for this period

 AIRPORT MAP

 RUNWAY INFORMATION
Runway 08 Runway length 10499 ft Runway width 148 ft
Runway elevation 26 ft Runway displaced threshold 492 ft Runway heading 73
Runway 26 Runway length 10499 ft Runway width 148 ft
Runway elevation 70 ft Runway displaced threshold 0 ft Runway heading 253

 AIRPORT FREQUENCIES
Type APP Name APP Frequency 118.35 MHZ
Type GND Name GND Frequency 121.7 MHZ
Type TWR Name TWR Frequency 118.35 MHZ

 AIRPORT NEAR NAVIGATION AIDS
Type NDB Name Almeria Frequency 284 KHZ
Type NDB Name Almeria Frequency 310 KHZ
Type VOR-DME Name Almeria Frequency 114100 KHZ



Powered by Virtual Airlines Manager [v2.6.2]